Terminal Aerodrome Forecast
Issued by NWS Memphis, TN

Home | Current Version | Previous Version | Text Only | Print | Product List | Glossary On
Versions: 1 2 3 4 5 6 7 8 9 10 11 12 13 14 15 16 17 18 19 20 21 22 23 24 25 26
855
FTUS44 KMEG 220525
TAFMEM
TAF
KMEM 220525Z 2206/2312 11005KT P6SM VCSH OVC090
     FM220800 09012KT P6SM -SHRA BKN050 OVC100
     FM221100 08012G20KT 6SM -SHRA BKN025 OVC080
     FM221800 12012G20KT 6SM SHRA VCTS BKN015CB OVC025
     FM222200 14008KT 6SM -TSRA BR SCT015 BKN030CB
     FM230100 VRB04KT 3SM BR VCSH OVC007=

USA.gov is the U.S. government's official web portal to all federal, state and local government web resources and services.